sensor_id;sensor_type;location;lat;lon;timestamp;pressure;altitude;pressure_sealevel;temperature;humidity
75656;BME280;64252;51.094;13.714;2023-09-19T00:01:19;99578.66;;;27.80;49.27
75656;BME280;64252;51.094;13.714;2023-09-19T00:06:11;99577.84;;;27.69;49.53
75656;BME280;64252;51.094;13.714;2023-09-19T00:08:41;99590.28;;;27.58;49.50
75656;BME280;64252;51.094;13.714;2023-09-19T00:11:09;99576.94;;;27.01;50.71
75656;BME280;64252;51.094;13.714;2023-09-19T00:13:36;99575.06;;;26.98;51.12
75656;BME280;64252;51.094;13.714;2023-09-19T00:16:09;99575.47;;;27.56;49.62
75656;BME280;64252;51.094;13.714;2023-09-19T00:18:36;99579.66;;;27.44;49.94
75656;BME280;64252;51.094;13.714;2023-09-19T00:21:02;99573.66;;;27.53;49.54
75656;BME280;64252;51.094;13.714;2023-09-19T00:23:30;99574.97;;;27.74;48.98
75656;BME280;64252;51.094;13.714;2023-09-19T00:26:00;99565.97;;;27.89;48.42
75656;BME280;64252;51.094;13.714;2023-09-19T00:28:29;99560.66;;;27.32;49.80
75656;BME280;64252;51.094;13.714;2023-09-19T00:30:55;99568.09;;;27.55;48.98
75656;BME280;64252;51.094;13.714;2023-09-19T00:33:21;99556.50;;;27.77;48.77
75656;BME280;64252;51.094;13.714;2023-09-19T00:35:48;99563.09;;;27.89;48.43
75656;BME280;64252;51.094;13.714;2023-09-19T00:38:14;99560.19;;;27.89;48.08
75656;BME280;64252;51.094;13.714;2023-09-19T00:40:45;99561.50;;;27.99;47.63
75656;BME280;64252;51.094;13.714;2023-09-19T00:43:10;99558.31;;;27.97;47.98
75656;BME280;64252;51.094;13.714;2023-09-19T00:45:37;99556.72;;;28.07;47.47
75656;BME280;64252;51.094;13.714;2023-09-19T00:48:05;99545.44;;;27.81;48.10
75656;BME280;64252;51.094;13.714;2023-09-19T00:50:35;99546.22;;;27.60;48.89
75656;BME280;64252;51.094;13.714;2023-09-19T00:53:02;99543.56;;;27.56;49.04
75656;BME280;64252;51.094;13.714;2023-09-19T00:55:33;99538.31;;;27.71;48.51
75656;BME280;64252;51.094;13.714;2023-09-19T01:00:26;99546.47;;;27.78;48.42
75656;BME280;64252;51.094;13.714;2023-09-19T01:02:52;99549.09;;;27.43;49.50
75656;BME280;64252;51.094;13.714;2023-09-19T01:05:18;99553.63;;;27.49;48.85
75656;BME280;64252;51.094;13.714;2023-09-19T01:07:44;99564.09;;;27.30;49.48
75656;BME280;64252;51.094;13.714;2023-09-19T01:10:15;99554.66;;;27.52;48.97
75656;BME280;64252;51.094;13.714;2023-09-19T01:18:57;99569.19;;;27.63;49.00
75656;BME280;64252;51.094;13.714;2023-09-19T01:24:44;99580.75;;;27.52;48.80
75656;BME280;64252;51.094;13.714;2023-09-19T01:30:31;99572.06;;;27.69;48.73
75656;BME280;64252;51.094;13.714;2023-09-19T01:32:58;99574.19;;;27.85;47.58
75656;BME280;64252;51.094;13.714;2023-09-19T01:35:24;99587.03;;;27.34;49.10
75656;BME280;64252;51.094;13.714;2023-09-19T01:37:50;99572.88;;;27.58;48.57
75656;BME280;64252;51.094;13.714;2023-09-19T01:40:18;99578.38;;;27.56;48.53
75656;BME280;64252;51.094;13.714;2023-09-19T01:45:37;99572.59;;;27.78;48.15
75656;BME280;64252;51.094;13.714;2023-09-19T01:51:06;99571.16;;;27.01;49.50
75656;BME280;64252;51.094;13.714;2023-09-19T01:53:51;99560.16;;;27.44;48.60
75656;BME280;64252;51.094;13.714;2023-09-19T01:59:24;99572.59;;;27.73;48.24
75656;BME280;64252;51.094;13.714;2023-09-19T02:01:54;99565.59;;;26.92;50.25
75656;BME280;64252;51.094;13.714;2023-09-19T02:04:20;99565.88;;;27.05;49.49
75656;BME280;64252;51.094;13.714;2023-09-19T02:06:46;99581.28;;;27.56;48.73
75656;BME280;64252;51.094;13.714;2023-09-19T02:09:15;99575.94;;;27.21;49.71
75656;BME280;64252;51.094;13.714;2023-09-19T02:11:41;99587.63;;;27.49;48.72
75656;BME280;64252;51.094;13.714;2023-09-19T02:14:07;99581.03;;;27.71;48.40
75656;BME280;64252;51.094;13.714;2023-09-19T02:16:34;99578.06;;;27.37;49.50
75656;BME280;64252;51.094;13.714;2023-09-19T02:19:00;99581.47;;;27.25;49.71
75656;BME280;64252;51.094;13.714;2023-09-19T02:21:26;99585.97;;;27.37;49.30
75656;BME280;64252;51.094;13.714;2023-09-19T02:23:55;99582.63;;;27.66;48.32
75656;BME280;64252;51.094;13.714;2023-09-19T02:26:21;99595.78;;;27.50;48.95
75656;BME280;64252;51.094;13.714;2023-09-19T02:28:47;99589.31;;;26.96;50.52
75656;BME280;64252;51.094;13.714;2023-09-19T02:31:12;99577.47;;;27.05;50.48
75656;BME280;64252;51.094;13.714;2023-09-19T02:33:38;99576.47;;;26.60;52.02
75656;BME280;64252;51.094;13.714;2023-09-19T02:36:04;99592.31;;;27.41;49.34
75656;BME280;64252;51.094;13.714;2023-09-19T02:38:30;99586.22;;;27.22;50.12
75656;BME280;64252;51.094;13.714;2023-09-19T02:40:56;99596.88;;;27.59;48.74
75656;BME280;64252;51.094;13.714;2023-09-19T02:43:22;99599.75;;;27.75;48.24
75656;BME280;64252;51.094;13.714;2023-09-19T02:45:49;99605.81;;;27.55;47.27
75656;BME280;64252;51.094;13.714;2023-09-19T02:48:18;99603.63;;;27.28;49.29
75656;BME280;64252;51.094;13.714;2023-09-19T02:50:44;99603.72;;;27.61;48.28
75656;BME280;64252;51.094;13.714;2023-09-19T02:53:10;99602.13;;;27.93;46.96
75656;BME280;64252;51.094;13.714;2023-09-19T02:55:39;99605.03;;;28.27;45.60
75656;BME280;64252;51.094;13.714;2023-09-19T02:58:06;99610.84;;;28.10;47.27
75656;BME280;64252;51.094;13.714;2023-09-19T03:00:40;99604.75;;;28.08;46.90
75656;BME280;64252;51.094;13.714;2023-09-19T03:03:08;99610.56;;;28.03;46.76
75656;BME280;64252;51.094;13.714;2023-09-19T03:05:34;99617.44;;;27.83;47.20
75656;BME280;64252;51.094;13.714;2023-09-19T03:08:00;99626.16;;;28.00;47.25
75656;BME280;64252;51.094;13.714;2023-09-19T03:10:27;99621.66;;;28.26;46.26
75656;BME280;64252;51.094;13.714;2023-09-19T03:12:56;99621.66;;;27.71;48.42
75656;BME280;64252;51.094;13.714;2023-09-19T03:15:22;99632.47;;;27.81;47.64
75656;BME280;64252;51.094;13.714;2023-09-19T03:17:49;99626.41;;;28.02;46.95
75656;BME280;64252;51.094;13.714;2023-09-19T03:20:20;99635.66;;;28.17;46.47
75656;BME280;64252;51.094;13.714;2023-09-19T03:22:48;99640.38;;;27.98;46.87
75656;BME280;64252;51.094;13.714;2023-09-19T03:25:15;99642.78;;;28.10;46.48
75656;BME280;64252;51.094;13.714;2023-09-19T03:27:46;99644.09;;;27.76;47.67
75656;BME280;64252;51.094;13.714;2023-09-19T03:30:13;99633.50;;;27.56;47.95
75656;BME280;64252;51.094;13.714;2023-09-19T03:32:46;99648.66;;;27.18;48.59
75656;BME280;64252;51.094;13.714;2023-09-19T03:35:12;99650.38;;;27.52;48.13
75656;BME280;64252;51.094;13.714;2023-09-19T03:37:41;99649.63;;;26.92;49.90
75656;BME280;64252;51.094;13.714;2023-09-19T03:40:08;99645.19;;;27.08;48.46
75656;BME280;64252;51.094;13.714;2023-09-19T03:42:40;99648.75;;;27.40;48.75
75656;BME280;64252;51.094;13.714;2023-09-19T03:45:08;99650.91;;;27.56;47.99
75656;BME280;64252;51.094;13.714;2023-09-19T03:47:39;99644.88;;;27.71;47.49
75656;BME280;64252;51.094;13.714;2023-09-19T03:50:07;99647.47;;;27.69;47.15
75656;BME280;64252;51.094;13.714;2023-09-19T03:52:45;99651.47;;;27.77;47.20
75656;BME280;64252;51.094;13.714;2023-09-19T03:55:10;99640.13;;;27.68;46.84
75656;BME280;64252;51.094;13.714;2023-09-19T03:57:38;99654.91;;;27.92;46.38
75656;BME280;64252;51.094;13.714;2023-09-19T04:00:04;99660.47;;;27.96;46.56
75656;BME280;64252;51.094;13.714;2023-09-19T04:02:38;99653.84;;;27.67;46.24
75656;BME280;64252;51.094;13.714;2023-09-19T04:05:05;99651.59;;;26.75;49.51
75656;BME280;64252;51.094;13.714;2023-09-19T04:07:31;99650.50;;;27.15;48.77
75656;BME280;64252;51.094;13.714;2023-09-19T04:09:57;99656.91;;;27.47;47.44
75656;BME280;64252;51.094;13.714;2023-09-19T04:12:23;99659.09;;;27.58;47.08
75656;BME280;64252;51.094;13.714;2023-09-19T04:14:48;99669.41;;;27.86;46.41
75656;BME280;64252;51.094;13.714;2023-09-19T04:17:15;99671.78;;;27.99;46.33
75656;BME280;64252;51.094;13.714;2023-09-19T04:19:42;99670.69;;;27.52;47.54
75656;BME280;64252;51.094;13.714;2023-09-19T04:22:07;99673.38;;;27.78;46.99
75656;BME280;64252;51.094;13.714;2023-09-19T04:24:34;99662.69;;;27.36;48.21
75656;BME280;64252;51.094;13.714;2023-09-19T04:27:00;99662.09;;;27.15;48.45
75656;BME280;64252;51.094;13.714;2023-09-19T04:29:26;99667.09;;;27.15;48.64
75656;BME280;64252;51.094;13.714;2023-09-19T04:31:54;99657.75;;;27.64;47.02
75656;BME280;64252;51.094;13.714;2023-09-19T04:34:20;99668.63;;;27.80;46.34
75656;BME280;64252;51.094;13.714;2023-09-19T04:36:46;99680.91;;;27.42;47.58
75656;BME280;64252;51.094;13.714;2023-09-19T04:39:11;99685.25;;;27.85;46.31
75656;BME280;64252;51.094;13.714;2023-09-19T04:41:38;99690.78;;;27.72;47.12
75656;BME280;64252;51.094;13.714;2023-09-19T04:44:06;99696.28;;;27.70;46.68
75656;BME280;64252;51.094;13.714;2023-09-19T04:46:31;99688.94;;;27.80;46.36
75656;BME280;64252;51.094;13.714;2023-09-19T04:49:00;99689.91;;;27.55;47.33
75656;BME280;64252;51.094;13.714;2023-09-19T04:51:26;99687.31;;;27.74;46.61
75656;BME280;64252;51.094;13.714;2023-09-19T04:53:54;99690.28;;;27.96;45.85
75656;BME280;64252;51.094;13.714;2023-09-19T04:56:20;99695.25;;;27.73;47.19
75656;BME280;64252;51.094;13.714;2023-09-19T04:58:46;99693.66;;;27.83;46.57
75656;BME280;64252;51.094;13.714;2023-09-19T05:01:12;99691.56;;;27.89;45.60
75656;BME280;64252;51.094;13.714;2023-09-19T05:03:40;99701.59;;;27.77;46.86
75656;BME280;64252;51.094;13.714;2023-09-19T05:06:06;99705.59;;;27.97;46.01
75656;BME280;64252;51.094;13.714;2023-09-19T05:08:32;99713.22;;;27.88;46.42
75656;BME280;64252;51.094;13.714;2023-09-19T05:10:58;99712.19;;;27.91;46.33
75656;BME280;64252;51.094;13.714;2023-09-19T05:16:10;99729.59;;;27.91;45.79
75656;BME280;64252;51.094;13.714;2023-09-19T05:18:35;99727.91;;;27.57;45.75
75656;BME280;64252;51.094;13.714;2023-09-19T05:21:04;99734.88;;;28.04;45.07
75656;BME280;64252;51.094;13.714;2023-09-19T05:23:30;99725.41;;;28.26;44.87
75656;BME280;64252;51.094;13.714;2023-09-19T05:25:56;99719.59;;;28.37;44.51
75656;BME280;64252;51.094;13.714;2023-09-19T05:28:23;99724.09;;;28.27;44.33
75656;BME280;64252;51.094;13.714;2023-09-19T05:30:49;99724.81;;;27.88;44.31
75656;BME280;64252;51.094;13.714;2023-09-19T05:33:15;99719.06;;;28.22;44.61
75656;BME280;64252;51.094;13.714;2023-09-19T05:35:43;99717.97;;;28.03;44.62
75656;BME280;64252;51.094;13.714;2023-09-19T05:40:35;99736.22;;;28.59;43.49
75656;BME280;64252;51.094;13.714;2023-09-19T05:43:01;99729.34;;;28.78;43.59
75656;BME280;64252;51.094;13.714;2023-09-19T05:45:28;99737.56;;;28.74;42.68
75656;BME280;64252;51.094;13.714;2023-09-19T05:47:55;99744.69;;;28.90;42.82
75656;BME280;64252;51.094;13.714;2023-09-19T05:50:27;99748.63;;;28.54;42.73
75656;BME280;64252;51.094;13.714;2023-09-19T05:52:54;99750.75;;;28.87;43.06
75656;BME280;64252;51.094;13.714;2023-09-19T05:55:21;99752.28;;;29.10;42.71
75656;BME280;64252;51.094;13.714;2023-09-19T05:57:53;99754.97;;;28.41;42.85
75656;BME280;64252;51.094;13.714;2023-09-19T06:00:20;99748.59;;;29.04;42.36
75656;BME280;64252;51.094;13.714;2023-09-19T06:02:55;99749.69;;;28.90;42.14
75656;BME280;64252;51.094;13.714;2023-09-19T06:05:26;99762.38;;;28.64;42.66
75656;BME280;64252;51.094;13.714;2023-09-19T06:07:53;99762.13;;;28.96;43.00
75656;BME280;64252;51.094;13.714;2023-09-19T06:10:19;99760.38;;;29.45;41.97
75656;BME280;64252;51.094;13.714;2023-09-19T06:12:49;99758.63;;;29.14;41.65
75656;BME280;64252;51.094;13.714;2023-09-19T06:15:15;99762.81;;;29.35;41.21
75656;BME280;64252;51.094;13.714;2023-09-19T06:17:43;99766.16;;;29.56;41.03
75656;BME280;64252;51.094;13.714;2023-09-19T06:20:08;99774.66;;;30.06;41.06
75656;BME280;64252;51.094;13.714;2023-09-19T06:22:46;99784.31;;;29.79;41.56
75656;BME280;64252;51.094;13.714;2023-09-19T06:25:13;99777.59;;;30.00;40.79
75656;BME280;64252;51.094;13.714;2023-09-19T06:27:48;99779.69;;;30.00;40.34
75656;BME280;64252;51.094;13.714;2023-09-19T06:30:14;99792.16;;;29.37;41.19
75656;BME280;64252;51.094;13.714;2023-09-19T06:32:41;99796.69;;;29.90;41.03
75656;BME280;64252;51.094;13.714;2023-09-19T06:35:10;99794.38;;;29.78;41.41
75656;BME280;64252;51.094;13.714;2023-09-19T06:37:37;99793.00;;;29.10;41.59
75656;BME280;64252;51.094;13.714;2023-09-19T06:40:13;99792.41;;;29.39;40.99
75656;BME280;64252;51.094;13.714;2023-09-19T06:42:47;99798.03;;;29.84;40.82
75656;BME280;64252;51.094;13.714;2023-09-19T06:45:15;99804.63;;;29.10;41.54
75656;BME280;64252;51.094;13.714;2023-09-19T06:47:45;99817.81;;;29.22;40.93
75656;BME280;64252;51.094;13.714;2023-09-19T06:50:14;99822.06;;;28.65;41.27
75656;BME280;64252;51.094;13.714;2023-09-19T06:52:41;99821.38;;;29.73;40.48
75656;BME280;64252;51.094;13.714;2023-09-19T06:55:07;99825.78;;;28.94;41.29
75656;BME280;64252;51.094;13.714;2023-09-19T06:57:35;99832.97;;;29.84;40.12
75656;BME280;64252;51.094;13.714;2023-09-19T07:00:01;99831.66;;;30.72;39.04
75656;BME280;64252;51.094;13.714;2023-09-19T07:02:27;99836.44;;;31.05;38.26
75656;BME280;64252;51.094;13.714;2023-09-19T07:04:53;99829.78;;;30.75;38.66
75656;BME280;64252;51.094;13.714;2023-09-19T07:07:18;99833.22;;;31.09;38.14
75656;BME280;64252;51.094;13.714;2023-09-19T07:09:45;99834.84;;;31.04;38.26
75656;BME280;64252;51.094;13.714;2023-09-19T07:12:10;99843.88;;;31.30;37.33
75656;BME280;64252;51.094;13.714;2023-09-19T07:14:37;99846.94;;;31.14;37.48
75656;BME280;64252;51.094;13.714;2023-09-19T07:17:02;99860.66;;;28.83;40.64
75656;BME280;64252;51.094;13.714;2023-09-19T07:19:29;99860.41;;;30.05;39.48
75656;BME280;64252;51.094;13.714;2023-09-19T07:21:55;99857.91;;;29.74;38.96
75656;BME280;64252;51.094;13.714;2023-09-19T07:24:22;99864.34;;;29.22;39.06
75656;BME280;64252;51.094;13.714;2023-09-19T07:26:49;99862.31;;;29.86;38.72
75656;BME280;64252;51.094;13.714;2023-09-19T07:29:15;99871.63;;;29.79;38.53
75656;BME280;64252;51.094;13.714;2023-09-19T07:31:41;99868.75;;;30.36;37.23
75656;BME280;64252;51.094;13.714;2023-09-19T07:34:07;99888.88;;;30.34;37.20
75656;BME280;64252;51.094;13.714;2023-09-19T07:36:34;99878.38;;;29.01;37.28
75656;BME280;64252;51.094;13.714;2023-09-19T07:39:00;99883.53;;;29.92;35.92
75656;BME280;64252;51.094;13.714;2023-09-19T07:41:26;99885.97;;;30.29;35.66
75656;BME280;64252;51.094;13.714;2023-09-19T07:43:51;99891.00;;;28.43;36.75
75656;BME280;64252;51.094;13.714;2023-09-19T07:46:20;99894.00;;;28.82;36.07
75656;BME280;64252;51.094;13.714;2023-09-19T07:48:47;99885.44;;;30.36;35.21
75656;BME280;64252;51.094;13.714;2023-09-19T07:51:14;99888.50;;;30.02;35.97
75656;BME280;64252;51.094;13.714;2023-09-19T07:53:42;99884.38;;;28.42;36.94
75656;BME280;64252;51.094;13.714;2023-09-19T07:56:09;99888.72;;;30.16;34.31
75656;BME280;64252;51.094;13.714;2023-09-19T07:58:36;99895.31;;;29.31;36.09
75656;BME280;64252;51.094;13.714;2023-09-19T08:01:04;99897.56;;;29.82;34.79
75656;BME280;64252;51.094;13.714;2023-09-19T08:03:30;99898.84;;;30.56;34.62
75656;BME280;64252;51.094;13.714;2023-09-19T08:05:56;99902.66;;;30.28;34.11
75656;BME280;64252;51.094;13.714;2023-09-19T08:08:23;99893.34;;;29.89;34.59
75656;BME280;64252;51.094;13.714;2023-09-19T08:10:56;99895.66;;;30.01;34.12
75656;BME280;64252;51.094;13.714;2023-09-19T08:13:23;99903.28;;;30.16;32.87
75656;BME280;64252;51.094;13.714;2023-09-19T08:15:48;99902.88;;;28.45;35.71
75656;BME280;64252;51.094;13.714;2023-09-19T08:18:17;99909.53;;;28.67;35.11
75656;BME280;64252;51.094;13.714;2023-09-19T08:20:49;99910.69;;;30.17;33.37
75656;BME280;64252;51.094;13.714;2023-09-19T08:23:16;99913.25;;;30.31;33.87
75656;BME280;64252;51.094;13.714;2023-09-19T08:25:43;99917.38;;;29.95;33.83
75656;BME280;64252;51.094;13.714;2023-09-19T08:28:09;99922.84;;;30.73;32.84
75656;BME280;64252;51.094;13.714;2023-09-19T08:30:37;99932.31;;;29.30;35.17
75656;BME280;64252;51.094;13.714;2023-09-19T08:33:05;99935.88;;;30.08;34.45
75656;BME280;64252;51.094;13.714;2023-09-19T08:35:31;99936.03;;;29.36;34.27
75656;BME280;64252;51.094;13.714;2023-09-19T08:37:57;99929.06;;;29.73;35.19
75656;BME280;64252;51.094;13.714;2023-09-19T08:40:23;99933.28;;;29.94;33.86
75656;BME280;64252;51.094;13.714;2023-09-19T08:42:54;99940.91;;;30.08;33.38
75656;BME280;64252;51.094;13.714;2023-09-19T08:45:21;99934.63;;;29.93;33.45
75656;BME280;64252;51.094;13.714;2023-09-19T08:50:23;99932.47;;;30.57;32.91
75656;BME280;64252;51.094;13.714;2023-09-19T08:52:52;99926.19;;;30.88;32.26
75656;BME280;64252;51.094;13.714;2023-09-19T08:55:23;99931.72;;;31.57;31.69
75656;BME280;64252;51.094;13.714;2023-09-19T08:57:52;99931.59;;;31.38;31.36
75656;BME280;64252;51.094;13.714;2023-09-19T09:00:26;99952.41;;;29.11;34.29
75656;BME280;64252;51.094;13.714;2023-09-19T09:02:54;99947.84;;;29.83;33.73
75656;BME280;64252;51.094;13.714;2023-09-19T09:05:22;99948.22;;;30.37;32.88
75656;BME280;64252;51.094;13.714;2023-09-19T09:07:50;99945.50;;;29.64;33.87
75656;BME280;64252;51.094;13.714;2023-09-19T09:10:20;99940.22;;;30.48;32.33
75656;BME280;64252;51.094;13.714;2023-09-19T09:12:54;99946.78;;;31.01;31.93
75656;BME280;64252;51.094;13.714;2023-09-19T09:15:23;99947.91;;;29.27;33.37
75656;BME280;64252;51.094;13.714;2023-09-19T09:17:50;99943.91;;;30.43;32.23
75656;BME280;64252;51.094;13.714;2023-09-19T09:20:19;99955.00;;;29.93;32.63
75656;BME280;64252;51.094;13.714;2023-09-19T09:22:55;99952.75;;;30.27;31.69
75656;BME280;64252;51.094;13.714;2023-09-19T09:25:48;99943.22;;;30.26;31.39
75656;BME280;64252;51.094;13.714;2023-09-19T09:28:26;99955.31;;;30.47;31.05
75656;BME280;64252;51.094;13.714;2023-09-19T09:30:57;99958.25;;;30.41;31.35
75656;BME280;64252;51.094;13.714;2023-09-19T09:33:34;99955.78;;;29.77;31.85
75656;BME280;64252;51.094;13.714;2023-09-19T09:36:01;99966.16;;;29.28;32.56
75656;BME280;64252;51.094;13.714;2023-09-19T09:38:42;99970.03;;;30.08;31.69
75656;BME280;64252;51.094;13.714;2023-09-19T09:41:09;99966.56;;;30.73;30.54
75656;BME280;64252;51.094;13.714;2023-09-19T09:43:37;99969.66;;;30.86;30.12
75656;BME280;64252;51.094;13.714;2023-09-19T09:46:15;99956.03;;;32.56;29.20
75656;BME280;64252;51.094;13.714;2023-09-19T09:51:34;99961.25;;;30.77;30.98
75656;BME280;64252;51.094;13.714;2023-09-19T09:54:13;99953.09;;;31.41;29.93
75656;BME280;64252;51.094;13.714;2023-09-19T09:56:53;99956.31;;;31.91;29.46
75656;BME280;64252;51.094;13.714;2023-09-19T09:59:21;99954.00;;;32.89;28.58
75656;BME280;64252;51.094;13.714;2023-09-19T10:01:49;99954.91;;;30.73;30.70
75656;BME280;64252;51.094;13.714;2023-09-19T10:04:28;99955.81;;;31.63;30.21
75656;BME280;64252;51.094;13.714;2023-09-19T10:07:02;99965.63;;;30.54;30.99
75656;BME280;64252;51.094;13.714;2023-09-19T10:09:45;99958.00;;;30.86;30.40
75656;BME280;64252;51.094;13.714;2023-09-19T10:12:12;99963.72;;;31.68;29.24
75656;BME280;64252;51.094;13.714;2023-09-19T10:14:41;99963.34;;;31.47;29.28
75656;BME280;64252;51.094;13.714;2023-09-19T10:17:10;99958.84;;;30.75;30.81
75656;BME280;64252;51.094;13.714;2023-09-19T10:19:46;99959.16;;;31.97;29.65
75656;BME280;64252;51.094;13.714;2023-09-19T10:22:16;99970.94;;;30.49;30.95
75656;BME280;64252;51.094;13.714;2023-09-19T10:24:49;99963.25;;;31.64;29.67
75656;BME280;64252;51.094;13.714;2023-09-19T10:27:20;99964.25;;;31.07;30.55
75656;BME280;64252;51.094;13.714;2023-09-19T10:29:52;99963.91;;;32.67;28.55
75656;BME280;64252;51.094;13.714;2023-09-19T10:32:22;99969.31;;;32.57;28.86
75656;BME280;64252;51.094;13.714;2023-09-19T10:34:49;99972.13;;;33.38;28.62
75656;BME280;64252;51.094;13.714;2023-09-19T10:37:21;99966.75;;;33.55;27.19
75656;BME280;64252;51.094;13.714;2023-09-19T10:39:52;99963.53;;;33.72;27.53
75656;BME280;64252;51.094;13.714;2023-09-19T10:42:23;99965.94;;;34.00;27.16
75656;BME280;64252;51.094;13.714;2023-09-19T10:44:54;99961.28;;;33.33;27.37
75656;BME280;64252;51.094;13.714;2023-09-19T10:47:26;99960.59;;;33.27;27.21
75656;BME280;64252;51.094;13.714;2023-09-19T10:49:52;99955.91;;;33.37;27.29
75656;BME280;64252;51.094;13.714;2023-09-19T10:52:22;99959.03;;;32.32;27.91
75656;BME280;64252;51.094;13.714;2023-09-19T10:54:51;99955.53;;;33.72;26.71
75656;BME280;64252;51.094;13.714;2023-09-19T10:57:24;99961.72;;;31.82;28.57
75656;BME280;64252;51.094;13.714;2023-09-19T11:00:06;99956.03;;;32.38;28.42
75656;BME280;64252;51.094;13.714;2023-09-19T11:05:37;99960.03;;;31.32;29.53
75656;BME280;64252;51.094;13.714;2023-09-19T11:08:09;99953.13;;;32.56;28.04
75656;BME280;64252;51.094;13.714;2023-09-19T11:10:50;99960.09;;;32.91;27.49
75656;BME280;64252;51.094;13.714;2023-09-19T11:13:29;99944.22;;;33.50;27.21
75656;BME280;64252;51.094;13.714;2023-09-19T11:16:04;99959.06;;;33.84;26.79
75656;BME280;64252;51.094;13.714;2023-09-19T11:26:50;99936.59;;;32.59;26.76
75656;BME280;64252;51.094;13.714;2023-09-19T11:29:30;99947.03;;;33.56;25.26
75656;BME280;64252;51.094;13.714;2023-09-19T11:31:58;99942.59;;;33.36;25.59
75656;BME280;64252;51.094;13.714;2023-09-19T11:37:02;99946.81;;;33.53;24.10
75656;BME280;64252;51.094;13.714;2023-09-19T11:39:30;99941.63;;;33.60;24.47
75656;BME280;64252;51.094;13.714;2023-09-19T11:41:56;99947.22;;;34.16;24.61
75656;BME280;64252;51.094;13.714;2023-09-19T11:49:17;99947.56;;;31.31;27.64
75656;BME280;64252;51.094;13.714;2023-09-19T11:51:51;99957.16;;;32.91;27.29
75656;BME280;64252;51.094;13.714;2023-09-19T11:54:18;99958.25;;;32.50;27.71
75656;BME280;64252;51.094;13.714;2023-09-19T11:56:51;99959.19;;;32.58;27.58
75656;BME280;64252;51.094;13.714;2023-09-19T11:59:23;99950.81;;;32.06;28.05
75656;BME280;64252;51.094;13.714;2023-09-19T12:01:52;99953.69;;;32.12;28.43
75656;BME280;64252;51.094;13.714;2023-09-19T12:04:37;99953.31;;;33.15;26.78
75656;BME280;64252;51.094;13.714;2023-09-19T12:07:13;99949.63;;;31.96;28.37
75656;BME280;64252;51.094;13.714;2023-09-19T12:09:43;99943.53;;;32.37;28.42
75656;BME280;64252;51.094;13.714;2023-09-19T12:12:19;99953.72;;;32.31;27.71
75656;BME280;64252;51.094;13.714;2023-09-19T12:14:53;99953.66;;;33.43;25.89
75656;BME280;64252;51.094;13.714;2023-09-19T12:17:19;99961.44;;;34.51;25.32
75656;BME280;64252;51.094;13.714;2023-09-19T12:19:51;99964.81;;;33.89;25.82
75656;BME280;64252;51.094;13.714;2023-09-19T12:22:17;99961.34;;;34.91;25.43
75656;BME280;64252;51.094;13.714;2023-09-19T12:24:44;99958.50;;;34.12;25.03
75656;BME280;64252;51.094;13.714;2023-09-19T12:27:11;99962.13;;;31.07;28.12
75656;BME280;64252;51.094;13.714;2023-09-19T12:29:46;99957.75;;;33.21;26.15
75656;BME280;64252;51.094;13.714;2023-09-19T12:32:14;99951.66;;;33.51;25.73
75656;BME280;64252;51.094;13.714;2023-09-19T12:34:42;99952.41;;;33.97;25.07
75656;BME280;64252;51.094;13.714;2023-09-19T12:37:13;99957.00;;;32.83;26.20
75656;BME280;64252;51.094;13.714;2023-09-19T12:39:49;99950.50;;;33.99;25.69
75656;BME280;64252;51.094;13.714;2023-09-19T12:42:18;99945.78;;;33.51;26.09
75656;BME280;64252;51.094;13.714;2023-09-19T12:44:46;99953.31;;;33.33;25.73
75656;BME280;64252;51.094;13.714;2023-09-19T12:47:16;99952.63;;;34.51;24.78
75656;BME280;64252;51.094;13.714;2023-09-19T12:50:18;99952.53;;;33.46;25.47
75656;BME280;64252;51.094;13.714;2023-09-19T12:52:52;99947.91;;;32.68;26.59
75656;BME280;64252;51.094;13.714;2023-09-19T12:55:28;99944.03;;;32.79;26.46
75656;BME280;64252;51.094;13.714;2023-09-19T12:58:19;99936.38;;;34.50;24.62
75656;BME280;64252;51.094;13.714;2023-09-19T13:00:45;99938.66;;;34.31;25.08
75656;BME280;64252;51.094;13.714;2023-09-19T13:05:56;99947.50;;;32.96;26.21
75656;BME280;64252;51.094;13.714;2023-09-19T13:08:33;99950.25;;;33.39;25.05
75656;BME280;64252;51.094;13.714;2023-09-19T13:11:07;99944.56;;;32.40;25.72
75656;BME280;64252;51.094;13.714;2023-09-19T13:13:36;99947.00;;;34.01;26.00
75656;BME280;64252;51.094;13.714;2023-09-19T13:16:03;99945.66;;;33.88;24.81
75656;BME280;64252;51.094;13.714;2023-09-19T13:18:30;99942.25;;;34.11;24.20
75656;BME280;64252;51.094;13.714;2023-09-19T13:21:06;99949.66;;;34.64;24.39
75656;BME280;64252;51.094;13.714;2023-09-19T13:23:53;99951.28;;;34.39;24.75
75656;BME280;64252;51.094;13.714;2023-09-19T13:26:22;99941.09;;;35.00;23.55
75656;BME280;64252;51.094;13.714;2023-09-19T13:28:48;99953.09;;;34.03;24.26
75656;BME280;64252;51.094;13.714;2023-09-19T13:31:15;99935.94;;;34.33;24.18
75656;BME280;64252;51.094;13.714;2023-09-19T13:33:44;99938.38;;;34.68;24.12
75656;BME280;64252;51.094;13.714;2023-09-19T13:38:41;99942.03;;;33.24;26.00
75656;BME280;64252;51.094;13.714;2023-09-19T13:41:09;99942.13;;;32.25;26.72
75656;BME280;64252;51.094;13.714;2023-09-19T13:43:39;99932.09;;;31.96;27.20
75656;BME280;64252;51.094;13.714;2023-09-19T13:46:05;99927.94;;;31.86;26.64
75656;BME280;64252;51.094;13.714;2023-09-19T13:48:37;99931.25;;;32.63;26.26
75656;BME280;64252;51.094;13.714;2023-09-19T13:51:03;99936.50;;;33.34;25.86
75656;BME280;64252;51.094;13.714;2023-09-19T13:55:56;99935.16;;;32.47;27.20
75656;BME280;64252;51.094;13.714;2023-09-19T13:58:21;99932.09;;;32.95;26.62
75656;BME280;64252;51.094;13.714;2023-09-19T14:00:48;99931.00;;;32.80;26.61
75656;BME280;64252;51.094;13.714;2023-09-19T14:03:14;99937.72;;;32.75;26.38